sensor_id;sensor_type;location;lat;lon;timestamp;temperature;humidity
49224;DHT22;35050;51.316;5.994;2023-02-15T00:01:39;5.70;99.90
49224;DHT22;35050;51.316;5.994;2023-02-15T00:04:06;5.60;99.90
49224;DHT22;35050;51.316;5.994;2023-02-15T00:06:32;5.70;99.90
49224;DHT22;35050;51.316;5.994;2023-02-15T00:08:58;5.70;99.90
49224;DHT22;35050;51.316;5.994;2023-02-15T00:11:24;5.70;99.90
49224;DHT22;35050;51.316;5.994;2023-02-15T00:14:11;5.70;99.90
49224;DHT22;35050;51.316;5.994;2023-02-15T00:16:38;5.80;99.90
49224;DHT22;35050;51.316;5.994;2023-02-15T00:19:04;5.80;99.90
49224;DHT22;35050;51.316;5.994;2023-02-15T00:21:32;5.80;99.90
49224;DHT22;35050;51.316;5.994;2023-02-15T00:23:59;5.70;99.90
49224;DHT22;35050;51.316;5.994;2023-02-15T00:26:26;5.60;99.90
49224;DHT22;35050;51.316;5.994;2023-02-15T00:28:52;5.70;99.90
49224;DHT22;35050;51.316;5.994;2023-02-15T00:31:18;5.50;99.90
49224;DHT22;35050;51.316;5.994;2023-02-15T00:33:43;5.50;99.90
49224;DHT22;35050;51.316;5.994;2023-02-15T00:36:11;5.60;99.90
49224;DHT22;35050;51.316;5.994;2023-02-15T00:38:37;5.50;99.90
49224;DHT22;35050;51.316;5.994;2023-02-15T00:41:05;5.50;99.90
49224;DHT22;35050;51.316;5.994;2023-02-15T00:43:32;5.50;99.90
49224;DHT22;35050;51.316;5.994;2023-02-15T00:45:58;5.40;99.90
49224;DHT22;35050;51.316;5.994;2023-02-15T00:48:24;5.50;99.90
49224;DHT22;35050;51.316;5.994;2023-02-15T00:50:53;5.40;99.90
49224;DHT22;35050;51.316;5.994;2023-02-15T00:53:19;5.40;99.90
49224;DHT22;35050;51.316;5.994;2023-02-15T00:55:45;5.40;99.90
49224;DHT22;35050;51.316;5.994;2023-02-15T00:58:12;5.30;99.90
49224;DHT22;35050;51.316;5.994;2023-02-15T01:00:38;5.20;99.90
49224;DHT22;35050;51.316;5.994;2023-02-15T01:03:05;5.40;99.90
49224;DHT22;35050;51.316;5.994;2023-02-15T01:05:31;5.20;99.90
49224;DHT22;35050;51.316;5.994;2023-02-15T01:07:58;5.10;99.90
49224;DHT22;35050;51.316;5.994;2023-02-15T01:10:25;5.10;99.90
49224;DHT22;35050;51.316;5.994;2023-02-15T01:12:51;5.00;99.90
49224;DHT22;35050;51.316;5.994;2023-02-15T01:15:17;5.00;99.90
49224;DHT22;35050;51.316;5.994;2023-02-15T01:17:43;5.00;99.90
49224;DHT22;35050;51.316;5.994;2023-02-15T01:20:11;5.00;99.90
49224;DHT22;35050;51.316;5.994;2023-02-15T01:22:37;5.00;99.90
49224;DHT22;35050;51.316;5.994;2023-02-15T01:25:03;5.00;99.90
49224;DHT22;35050;51.316;5.994;2023-02-15T01:27:29;4.90;99.90
49224;DHT22;35050;51.316;5.994;2023-02-15T01:29:56;4.90;99.90
49224;DHT22;35050;51.316;5.994;2023-02-15T01:32:22;4.80;99.90
49224;DHT22;35050;51.316;5.994;2023-02-15T01:34:48;4.90;99.90
49224;DHT22;35050;51.316;5.994;2023-02-15T01:37:14;4.90;99.90
49224;DHT22;35050;51.316;5.994;2023-02-15T01:39:39;5.00;99.90
49224;DHT22;35050;51.316;5.994;2023-02-15T01:42:05;5.00;99.90
49224;DHT22;35050;51.316;5.994;2023-02-15T01:44:56;5.00;99.90
49224;DHT22;35050;51.316;5.994;2023-02-15T01:47:44;4.90;99.90
49224;DHT22;35050;51.316;5.994;2023-02-15T01:50:21;4.90;99.90
49224;DHT22;35050;51.316;5.994;2023-02-15T01:52:58;4.80;99.90
49224;DHT22;35050;51.316;5.994;2023-02-15T01:55:35;4.80;99.90
49224;DHT22;35050;51.316;5.994;2023-02-15T01:58:02;4.90;99.90
49224;DHT22;35050;51.316;5.994;2023-02-15T02:00:28;4.80;99.90
49224;DHT22;35050;51.316;5.994;2023-02-15T02:02:55;4.80;99.90
49224;DHT22;35050;51.316;5.994;2023-02-15T02:05:22;4.80;99.90
49224;DHT22;35050;51.316;5.994;2023-02-15T02:07:50;4.80;99.90
49224;DHT22;35050;51.316;5.994;2023-02-15T02:10:19;4.80;99.90
49224;DHT22;35050;51.316;5.994;2023-02-15T02:12:47;4.80;99.90
49224;DHT22;35050;51.316;5.994;2023-02-15T02:15:14;4.80;99.90
49224;DHT22;35050;51.316;5.994;2023-02-15T02:20:48;4.60;99.90
49224;DHT22;35050;51.316;5.994;2023-02-15T02:23:25;4.60;99.90
49224;DHT22;35050;51.316;5.994;2023-02-15T02:26:34;4.70;99.90
49224;DHT22;35050;51.316;5.994;2023-02-15T02:34:53;4.60;99.90
49224;DHT22;35050;51.316;5.994;2023-02-15T02:37:46;4.60;99.90
49224;DHT22;35050;51.316;5.994;2023-02-15T02:43:25;4.70;99.90
49224;DHT22;35050;51.316;5.994;2023-02-15T02:45:53;4.60;99.90
49224;DHT22;35050;51.316;5.994;2023-02-15T02:48:27;4.60;99.90
49224;DHT22;35050;51.316;5.994;2023-02-15T02:50:54;4.60;99.90
49224;DHT22;35050;51.316;5.994;2023-02-15T02:53:19;4.50;99.90
49224;DHT22;35050;51.316;5.994;2023-02-15T02:55:55;4.50;99.90
49224;DHT22;35050;51.316;5.994;2023-02-15T03:01:01;4.40;99.90
49224;DHT22;35050;51.316;5.994;2023-02-15T03:06:04;4.50;99.90
49224;DHT22;35050;51.316;5.994;2023-02-15T03:08:38;4.40;99.90
49224;DHT22;35050;51.316;5.994;2023-02-15T03:11:06;4.50;99.90
49224;DHT22;35050;51.316;5.994;2023-02-15T03:13:32;4.40;99.90
49224;DHT22;35050;51.316;5.994;2023-02-15T03:16:00;4.40;99.90
49224;DHT22;35050;51.316;5.994;2023-02-15T03:18:48;4.30;99.90
49224;DHT22;35050;51.316;5.994;2023-02-15T03:21:21;4.30;99.90
49224;DHT22;35050;51.316;5.994;2023-02-15T03:23:57;4.30;99.90
49224;DHT22;35050;51.316;5.994;2023-02-15T03:26:25;4.20;99.90
49224;DHT22;35050;51.316;5.994;2023-02-15T03:28:55;4.30;99.90
49224;DHT22;35050;51.316;5.994;2023-02-15T03:31:25;4.20;99.90
49224;DHT22;35050;51.316;5.994;2023-02-15T03:34:03;4.30;99.90
49224;DHT22;35050;51.316;5.994;2023-02-15T03:36:39;4.20;99.90
49224;DHT22;35050;51.316;5.994;2023-02-15T03:45:03;4.10;99.90
49224;DHT22;35050;51.316;5.994;2023-02-15T03:47:37;4.10;99.90
49224;DHT22;35050;51.316;5.994;2023-02-15T03:50:12;4.00;99.90
49224;DHT22;35050;51.316;5.994;2023-02-15T03:53:01;4.00;99.90
49224;DHT22;35050;51.316;5.994;2023-02-15T03:55:28;4.00;99.90
49224;DHT22;35050;51.316;5.994;2023-02-15T03:57:55;4.00;99.90
49224;DHT22;35050;51.316;5.994;2023-02-15T04:00:44;4.00;99.90
49224;DHT22;35050;51.316;5.994;2023-02-15T04:03:36;4.10;99.90
49224;DHT22;35050;51.316;5.994;2023-02-15T04:06:03;4.20;99.90
49224;DHT22;35050;51.316;5.994;2023-02-15T04:08:28;4.10;99.90
49224;DHT22;35050;51.316;5.994;2023-02-15T04:11:12;4.00;99.90
49224;DHT22;35050;51.316;5.994;2023-02-15T04:13:39;4.00;99.90
49224;DHT22;35050;51.316;5.994;2023-02-15T04:16:04;3.90;99.90
49224;DHT22;35050;51.316;5.994;2023-02-15T04:18:39;3.90;99.90
49224;DHT22;35050;51.316;5.994;2023-02-15T04:21:25;3.80;99.90
49224;DHT22;35050;51.316;5.994;2023-02-15T04:24:10;3.90;99.90
49224;DHT22;35050;51.316;5.994;2023-02-15T04:26:54;3.90;99.90
49224;DHT22;35050;51.316;5.994;2023-02-15T04:29:22;3.90;99.90
49224;DHT22;35050;51.316;5.994;2023-02-15T04:31:48;3.90;99.90
49224;DHT22;35050;51.316;5.994;2023-02-15T04:34:14;3.90;99.90
49224;DHT22;35050;51.316;5.994;2023-02-15T04:36:40;3.80;99.90
49224;DHT22;35050;51.316;5.994;2023-02-15T04:39:06;3.90;99.90
49224;DHT22;35050;51.316;5.994;2023-02-15T04:41:32;3.90;99.90
49224;DHT22;35050;51.316;5.994;2023-02-15T04:43:59;3.90;99.90
49224;DHT22;35050;51.316;5.994;2023-02-15T04:46:26;3.80;99.90
49224;DHT22;35050;51.316;5.994;2023-02-15T04:48:52;3.80;99.90
49224;DHT22;35050;51.316;5.994;2023-02-15T04:51:18;3.80;99.90
49224;DHT22;35050;51.316;5.994;2023-02-15T04:53:44;3.80;99.90
49224;DHT22;35050;51.316;5.994;2023-02-15T04:56:10;3.80;99.90
49224;DHT22;35050;51.316;5.994;2023-02-15T04:58:35;3.60;99.90
49224;DHT22;35050;51.316;5.994;2023-02-15T05:01:02;3.60;99.90
49224;DHT22;35050;51.316;5.994;2023-02-15T05:03:28;3.70;99.90
49224;DHT22;35050;51.316;5.994;2023-02-15T05:05:54;3.60;99.90
49224;DHT22;35050;51.316;5.994;2023-02-15T05:08:19;3.60;99.90
49224;DHT22;35050;51.316;5.994;2023-02-15T05:10:47;3.60;99.90
49224;DHT22;35050;51.316;5.994;2023-02-15T05:13:13;3.60;99.90
49224;DHT22;35050;51.316;5.994;2023-02-15T05:15:39;3.60;99.90
49224;DHT22;35050;51.316;5.994;2023-02-15T05:18:04;3.50;99.90
49224;DHT22;35050;51.316;5.994;2023-02-15T05:20:32;3.60;99.90
49224;DHT22;35050;51.316;5.994;2023-02-15T05:22:57;3.50;99.90
49224;DHT22;35050;51.316;5.994;2023-02-15T05:25:23;3.50;99.90
49224;DHT22;35050;51.316;5.994;2023-02-15T05:28:10;3.50;99.90
49224;DHT22;35050;51.316;5.994;2023-02-15T05:31:05;3.50;99.90
49224;DHT22;35050;51.316;5.994;2023-02-15T05:33:32;3.50;99.90
49224;DHT22;35050;51.316;5.994;2023-02-15T05:35:58;3.40;99.90
49224;DHT22;35050;51.316;5.994;2023-02-15T05:38:24;3.40;99.90
49224;DHT22;35050;51.316;5.994;2023-02-15T05:40:53;3.50;99.90
49224;DHT22;35050;51.316;5.994;2023-02-15T05:43:19;3.50;99.90
49224;DHT22;35050;51.316;5.994;2023-02-15T05:45:50;3.40;99.90
49224;DHT22;35050;51.316;5.994;2023-02-15T05:48:16;3.40;99.90
49224;DHT22;35050;51.316;5.994;2023-02-15T05:50:42;3.40;99.90
49224;DHT22;35050;51.316;5.994;2023-02-15T05:53:08;3.50;99.90
49224;DHT22;35050;51.316;5.994;2023-02-15T05:55:33;3.40;99.90
49224;DHT22;35050;51.316;5.994;2023-02-15T05:57:59;3.30;99.90
49224;DHT22;35050;51.316;5.994;2023-02-15T06:00:24;3.40;99.90
49224;DHT22;35050;51.316;5.994;2023-02-15T06:02:50;3.40;99.90
49224;DHT22;35050;51.316;5.994;2023-02-15T06:05:16;3.40;99.90
49224;DHT22;35050;51.316;5.994;2023-02-15T06:07:45;3.40;99.90
49224;DHT22;35050;51.316;5.994;2023-02-15T06:10:11;3.40;99.90
49224;DHT22;35050;51.316;5.994;2023-02-15T06:12:37;3.40;99.90
49224;DHT22;35050;51.316;5.994;2023-02-15T06:15:03;3.40;99.90
49224;DHT22;35050;51.316;5.994;2023-02-15T06:17:29;3.30;99.90
49224;DHT22;35050;51.316;5.994;2023-02-15T06:19:55;3.30;99.90
49224;DHT22;35050;51.316;5.994;2023-02-15T06:22:20;3.20;99.90
49224;DHT22;35050;51.316;5.994;2023-02-15T06:24:46;3.10;99.90
49224;DHT22;35050;51.316;5.994;2023-02-15T06:27:12;3.10;99.90
49224;DHT22;35050;51.316;5.994;2023-02-15T06:29:39;3.00;99.90
49224;DHT22;35050;51.316;5.994;2023-02-15T06:32:05;3.10;99.90
49224;DHT22;35050;51.316;5.994;2023-02-15T06:34:31;3.10;99.90
49224;DHT22;35050;51.316;5.994;2023-02-15T06:36:56;3.10;99.90
49224;DHT22;35050;51.316;5.994;2023-02-15T06:39:22;2.90;99.90
49224;DHT22;35050;51.316;5.994;2023-02-15T06:41:48;2.90;99.90
49224;DHT22;35050;51.316;5.994;2023-02-15T06:44:13;3.00;99.90
49224;DHT22;35050;51.316;5.994;2023-02-15T06:46:39;3.00;99.90
49224;DHT22;35050;51.316;5.994;2023-02-15T06:49:05;3.00;99.90
49224;DHT22;35050;51.316;5.994;2023-02-15T06:51:30;3.00;99.90
49224;DHT22;35050;51.316;5.994;2023-02-15T06:53:56;3.00;99.90
49224;DHT22;35050;51.316;5.994;2023-02-15T06:56:21;3.00;99.90
49224;DHT22;35050;51.316;5.994;2023-02-15T06:58:47;3.10;99.90
49224;DHT22;35050;51.316;5.994;2023-02-15T07:01:15;3.00;99.90
49224;DHT22;35050;51.316;5.994;2023-02-15T07:03:41;3.10;99.90
49224;DHT22;35050;51.316;5.994;2023-02-15T07:06:07;3.00;99.90
49224;DHT22;35050;51.316;5.994;2023-02-15T07:08:35;3.00;99.90
49224;DHT22;35050;51.316;5.994;2023-02-15T07:11:01;3.90;99.90
49224;DHT22;35050;51.316;5.994;2023-02-15T07:14:01;3.30;99.90
49224;DHT22;35050;51.316;5.994;2023-02-15T07:16:27;3.10;99.90
49224;DHT22;35050;51.316;5.994;2023-02-15T07:18:53;3.10;99.90
49224;DHT22;35050;51.316;5.994;2023-02-15T07:21:19;3.10;99.90
49224;DHT22;35050;51.316;5.994;2023-02-15T07:23:44;3.20;99.90
49224;DHT22;35050;51.316;5.994;2023-02-15T07:26:10;3.20;99.90
49224;DHT22;35050;51.316;5.994;2023-02-15T07:28:35;3.10;99.90
49224;DHT22;35050;51.316;5.994;2023-02-15T07:31:03;3.10;99.90
49224;DHT22;35050;51.316;5.994;2023-02-15T07:33:31;3.00;99.90
49224;DHT22;35050;51.316;5.994;2023-02-15T07:35:58;3.10;99.90
49224;DHT22;35050;51.316;5.994;2023-02-15T07:38:25;3.10;99.90
49224;DHT22;35050;51.316;5.994;2023-02-15T07:40:51;3.10;99.90
49224;DHT22;35050;51.316;5.994;2023-02-15T07:43:17;3.30;99.90
49224;DHT22;35050;51.316;5.994;2023-02-15T07:45:43;3.50;99.90
49224;DHT22;35050;51.316;5.994;2023-02-15T07:48:09;3.50;99.90
49224;DHT22;35050;51.316;5.994;2023-02-15T07:50:35;3.50;99.90
49224;DHT22;35050;51.316;5.994;2023-02-15T07:53:03;3.60;99.90
49224;DHT22;35050;51.316;5.994;2023-02-15T07:55:29;3.50;99.90
49224;DHT22;35050;51.316;5.994;2023-02-15T07:57:55;3.60;99.90
49224;DHT22;35050;51.316;5.994;2023-02-15T08:00:22;3.50;99.90
49224;DHT22;35050;51.316;5.994;2023-02-15T08:02:56;3.70;99.90
49224;DHT22;35050;51.316;5.994;2023-02-15T08:05:41;3.90;99.90
49224;DHT22;35050;51.316;5.994;2023-02-15T08:08:08;3.90;99.90
49224;DHT22;35050;51.316;5.994;2023-02-15T08:10:58;3.90;99.90
49224;DHT22;35050;51.316;5.994;2023-02-15T08:13:46;4.00;99.90
49224;DHT22;35050;51.316;5.994;2023-02-15T08:19:04;4.30;99.90
49224;DHT22;35050;51.316;5.994;2023-02-15T08:21:31;4.40;99.90
49224;DHT22;35050;51.316;5.994;2023-02-15T08:23:58;4.50;99.90
49224;DHT22;35050;51.316;5.994;2023-02-15T08:26:24;4.70;99.90
49224;DHT22;35050;51.316;5.994;2023-02-15T08:28:51;4.80;99.90
49224;DHT22;35050;51.316;5.994;2023-02-15T08:31:17;4.70;99.90
49224;DHT22;35050;51.316;5.994;2023-02-15T08:33:44;4.90;99.90
49224;DHT22;35050;51.316;5.994;2023-02-15T08:36:17;5.00;99.90
49224;DHT22;35050;51.316;5.994;2023-02-15T08:38:43;5.10;99.90
49224;DHT22;35050;51.316;5.994;2023-02-15T08:41:27;5.20;99.90
49224;DHT22;35050;51.316;5.994;2023-02-15T08:43:54;5.00;99.90
49224;DHT22;35050;51.316;5.994;2023-02-15T08:46:21;5.00;99.90
49224;DHT22;35050;51.316;5.994;2023-02-15T08:48:48;5.10;99.90
49224;DHT22;35050;51.316;5.994;2023-02-15T08:51:20;5.30;99.90
49224;DHT22;35050;51.316;5.994;2023-02-15T08:53:48;5.50;99.90
49224;DHT22;35050;51.316;5.994;2023-02-15T08:56:20;5.50;99.90
49224;DHT22;35050;51.316;5.994;2023-02-15T08:58:46;5.40;99.90
49224;DHT22;35050;51.316;5.994;2023-02-15T09:01:20;5.50;99.90
49224;DHT22;35050;51.316;5.994;2023-02-15T09:03:48;5.50;99.90
49224;DHT22;35050;51.316;5.994;2023-02-15T09:06:15;5.60;99.90
49224;DHT22;35050;51.316;5.994;2023-02-15T09:08:41;5.60;99.90
49224;DHT22;35050;51.316;5.994;2023-02-15T09:11:15;5.80;99.90
49224;DHT22;35050;51.316;5.994;2023-02-15T09:13:49;5.90;99.90
49224;DHT22;35050;51.316;5.994;2023-02-15T09:16:15;5.80;99.90
49224;DHT22;35050;51.316;5.994;2023-02-15T09:18:44;6.00;99.90
49224;DHT22;35050;51.316;5.994;2023-02-15T09:21:15;6.10;99.90
49224;DHT22;35050;51.316;5.994;2023-02-15T09:23:43;6.20;99.90
49224;DHT22;35050;51.316;5.994;2023-02-15T09:26:11;6.20;99.90
49224;DHT22;35050;51.316;5.994;2023-02-15T09:28:37;6.30;99.90
49224;DHT22;35050;51.316;5.994;2023-02-15T09:31:13;6.30;99.90
49224;DHT22;35050;51.316;5.994;2023-02-15T09:33:41;6.50;99.90
49224;DHT22;35050;51.316;5.994;2023-02-15T09:38:52;6.70;99.90
49224;DHT22;35050;51.316;5.994;2023-02-15T09:41:43;6.50;99.90
49224;DHT22;35050;51.316;5.994;2023-02-15T09:47:27;6.50;99.90
49224;DHT22;35050;51.316;5.994;2023-02-15T10:01:04;7.40;99.90
49224;DHT22;35050;51.316;5.994;2023-02-15T10:08:56;7.90;99.90
49224;DHT22;35050;51.316;5.994;2023-02-15T10:28:01;10.00;99.90
49224;DHT22;35050;51.316;5.994;2023-02-15T10:30:38;10.30;99.90
49224;DHT22;35050;51.316;5.994;2023-02-15T10:38:45;10.70;99.90
49224;DHT22;35050;51.316;5.994;2023-02-15T10:44:10;10.80;99.90
49224;DHT22;35050;51.316;5.994;2023-02-15T10:53:26;11.70;99.90
49224;DHT22;35050;51.316;5.994;2023-02-15T10:56:03;11.40;99.90
49224;DHT22;35050;51.316;5.994;2023-02-15T10:58:38;11.50;99.90
49224;DHT22;35050;51.316;5.994;2023-02-15T11:01:33;11.40;99.90
49224;DHT22;35050;51.316;5.994;2023-02-15T11:09:49;11.90;99.90
49224;DHT22;35050;51.316;5.994;2023-02-15T11:12:20;12.00;99.90
49224;DHT22;35050;51.316;5.994;2023-02-15T11:15:01;12.40;99.90
49224;DHT22;35050;51.316;5.994;2023-02-15T11:17:35;12.30;99.90
49224;DHT22;35050;51.316;5.994;2023-02-15T11:20:23;12.80;99.90
49224;DHT22;35050;51.316;5.994;2023-02-15T11:22:51;13.00;99.90
49224;DHT22;35050;51.316;5.994;2023-02-15T11:25:33;13.10;99.90
49224;DHT22;35050;51.316;5.994;2023-02-15T11:28:03;13.20;99.90
49224;DHT22;35050;51.316;5.994;2023-02-15T11:30:46;13.30;99.90
49224;DHT22;35050;51.316;5.994;2023-02-15T11:35:52;13.50;99.90
49224;DHT22;35050;51.316;5.994;2023-02-15T11:38:24;13.60;99.90
49224;DHT22;35050;51.316;5.994;2023-02-15T11:41:03;13.50;99.90
49224;DHT22;35050;51.316;5.994;2023-02-15T11:46:00;14.00;99.90
49224;DHT22;35050;51.316;5.994;2023-02-15T11:48:26;13.90;99.50
49224;DHT22;35050;51.316;5.994;2023-02-15T11:50:54;13.80;99.10
49224;DHT22;35050;51.316;5.994;2023-02-15T11:53:22;14.00;99.90
49224;DHT22;35050;51.316;5.994;2023-02-15T11:55:53;14.00;99.20
49224;DHT22;35050;51.316;5.994;2023-02-15T12:01:20;13.90;98.80
49224;DHT22;35050;51.316;5.994;2023-02-15T12:08:48;15.10;98.40
49224;DHT22;35050;51.316;5.994;2023-02-15T12:11:20;15.20;97.50
49224;DHT22;35050;51.316;5.994;2023-02-15T12:13:59;15.30;96.40
49224;DHT22;35050;51.316;5.994;2023-02-15T12:16:27;15.60;96.40
49224;DHT22;35050;51.316;5.994;2023-02-15T12:18:58;16.00;96.00
49224;DHT22;35050;51.316;5.994;2023-02-15T12:21:34;16.00;96.30
49224;DHT22;35050;51.316;5.994;2023-02-15T12:24:20;16.20;95.10
49224;DHT22;35050;51.316;5.994;2023-02-15T12:27:02;16.50;94.70
49224;DHT22;35050;51.316;5.994;2023-02-15T12:29:40;16.80;93.70
49224;DHT22;35050;51.316;5.994;2023-02-15T12:32:11;16.80;93.60
49224;DHT22;35050;51.316;5.994;2023-02-15T12:34:41;16.80;92.50
49224;DHT22;35050;51.316;5.994;2023-02-15T12:37:23;16.70;92.80
49224;DHT22;35050;51.316;5.994;2023-02-15T12:39:59;17.20;92.70
49224;DHT22;35050;51.316;5.994;2023-02-15T12:42:26;17.50;93.60
49224;DHT22;35050;51.316;5.994;2023-02-15T12:47:27;17.00;91.00
49224;DHT22;35050;51.316;5.994;2023-02-15T12:50:13;17.60;92.10
49224;DHT22;35050;51.316;5.994;2023-02-15T12:52:47;17.60;90.60
49224;DHT22;35050;51.316;5.994;2023-02-15T12:55:23;17.90;90.70
49224;DHT22;35050;51.316;5.994;2023-02-15T13:00:31;18.40;89.00
49224;DHT22;35050;51.316;5.994;2023-02-15T13:02:58;18.90;90.30
49224;DHT22;35050;51.316;5.994;2023-02-15T13:05:32;18.60;87.60
49224;DHT22;35050;51.316;5.994;2023-02-15T13:08:01;18.80;88.00
49224;DHT22;35050;51.316;5.994;2023-02-15T13:10:36;19.10;87.20
49224;DHT22;35050;51.316;5.994;2023-02-15T13:13:16;19.20;86.90
49224;DHT22;35050;51.316;5.994;2023-02-15T13:15:46;19.60;88.40
49224;DHT22;35050;51.316;5.994;2023-02-15T13:18:29;19.50;87.10
49224;DHT22;35050;51.316;5.994;2023-02-15T13:20:56;19.40;85.30
49224;DHT22;35050;51.316;5.994;2023-02-15T13:23:28;19.90;85.60
49224;DHT22;35050;51.316;5.994;2023-02-15T13:26:03;20.10;84.60
49224;DHT22;35050;51.316;5.994;2023-02-15T13:28:39;20.60;82.20
49224;DHT22;35050;51.316;5.994;2023-02-15T13:31:13;20.50;82.10
49224;DHT22;35050;51.316;5.994;2023-02-15T13:33:42;20.30;80.00
49224;DHT22;35050;51.316;5.994;2023-02-15T13:36:23;20.60;79.90
49224;DHT22;35050;51.316;5.994;2023-02-15T13:39:08;20.40;80.20
49224;DHT22;35050;51.316;5.994;2023-02-15T13:42:24;20.20;80.90
49224;DHT22;35050;51.316;5.994;2023-02-15T13:45:13;20.30;81.60
49224;DHT22;35050;51.316;5.994;2023-02-15T14:01:42;19.50;85.00
49224;DHT22;35050;51.316;5.994;2023-02-15T14:12:51;19.40;84.30
49224;DHT22;35050;51.316;5.994;2023-02-15T14:25:51;18.30;85.30
49224;DHT22;35050;51.316;5.994;2023-02-15T14:28:40;18.10;87.20
49224;DHT22;35050;51.316;5.994;2023-02-15T14:31:12;18.00;88.20
49224;DHT22;35050;51.316;5.994;2023-02-15T14:33:41;17.90;88.50
49224;DHT22;35050;51.316;5.994;2023-02-15T14:36:18;17.30;88.50
49224;DHT22;35050;51.316;5.994;2023-02-15T14:42:09;16.90;90.80
49224;DHT22;35050;51.316;5.994;2023-02-15T14:44:40;17.00;91.80
49224;DHT22;35050;51.316;5.994;2023-02-15T14:47:22;16.70;91.60
49224;DHT22;35050;51.316;5.994;2023-02-15T14:49:50;16.50;91.50
49224;DHT22;35050;51.316;5.994;2023-02-15T14:52:16;16.70;92.30
49224;DHT22;35050;51.316;5.994;2023-02-15T15:04:46;16.10;88.60
49224;DHT22;35050;51.316;5.994;2023-02-15T15:07:27;16.40;90.40
49224;DHT22;35050;51.316;5.994;2023-02-15T15:10:46;16.30;89.10
49224;DHT22;35050;51.316;5.994;2023-02-15T15:12:48;16.40;89.50
49224;DHT22;35050;51.316;5.994;2023-02-15T15:15:33;16.60;90.70
49224;DHT22;35050;51.316;5.994;2023-02-15T15:18:08;16.60;90.10
49224;DHT22;35050;51.316;5.994;2023-02-15T15:20:47;16.40;90.60
49224;DHT22;35050;51.316;5.994;2023-02-15T15:25:51;15.80;90.20
49224;DHT22;35050;51.316;5.994;2023-02-15T15:31:16;15.60;90.80
49224;DHT22;35050;51.316;5.994;2023-02-15T15:42:48;15.50;92.00
49224;DHT22;35050;51.316;5.994;2023-02-15T15:45:48;15.40;91.90
49224;DHT22;35050;51.316;5.994;2023-02-15T15:48:38;15.20;92.90
49224;DHT22;35050;51.316;5.994;2023-02-15T15:51:41;15.30;93.60
49224;DHT22;35050;51.316;5.994;2023-02-15T15:54:17;15.20;94.20
49224;DHT22;35050;51.316;5.994;2023-02-15T15:56:49;15.20;95.10
49224;DHT22;35050;51.316;5.994;2023-02-15T15:59:21;15.20;95.40
49224;DHT22;35050;51.316;5.994;2023-02-15T16:01:48;15.10;95.50
49224;DHT22;35050;51.316;5.994;2023-02-15T16:04:27;14.80;95.80
49224;DHT22;35050;51.316;5.994;2023-02-15T16:06:56;14.80;95.60
49224;DHT22;35050;51.316;5.994;2023-02-15T16:09:24;14.40;94.70
49224;DHT22;35050;51.316;5.994;2023-02-15T16:11:52;14.40;94.90
49224;DHT22;35050;51.316;5.994;2023-02-15T16:16:54;14.20;95.90
49224;DHT22;35050;51.316;5.994;2023-02-15T16:19:32;14.00;95.10
49224;DHT22;35050;51.316;5.994;2023-02-15T16:22:00;14.20;96.20
49224;DHT22;35050;51.316;5.994;2023-02-15T16:27:17;14.00;96.10
49224;DHT22;35050;51.316;5.994;2023-02-15T16:29:45;14.00;96.50
49224;DHT22;35050;51.316;5.994;2023-02-15T16:32:21;13.80;96.90
49224;DHT22;35050;51.316;5.994;2023-02-15T16:34:57;13.80;97.10
49224;DHT22;35050;51.316;5.994;2023-02-15T16:37:30;13.70;97.50
49224;DHT22;35050;51.316;5.994;2023-02-15T16:39:56;13.70;98.30
49224;DHT22;35050;51.316;5.994;2023-02-15T16:42:23;13.60;97.20
49224;DHT22;35050;51.316;5.994;2023-02-15T16:45:08;13.50;98.20
49224;DHT22;35050;51.316;5.994;2023-02-15T16:47:41;13.40;98.80
49224;DHT22;35050;51.316;5.994;2023-02-15T16:50:16;13.50;98.90
49224;DHT22;35050;51.316;5.994;2023-02-15T16:52:43;13.30;99.60
49224;DHT22;35050;51.316;5.994;2023-02-15T16:55:23;13.30;99.20
49224;DHT22;35050;51.316;5.994;2023-02-15T16:57:50;13.10;99.90
49224;DHT22;35050;51.316;5.994;2023-02-15T17:00:20;13.00;99.90
49224;DHT22;35050;51.316;5.994;2023-02-15T17:02:59;13.00;99.90
49224;DHT22;35050;51.316;5.994;2023-02-15T17:05:31;12.80;99.90
49224;DHT22;35050;51.316;5.994;2023-02-15T17:13:29;12.70;99.90
49224;DHT22;35050;51.316;5.994;2023-02-15T17:18:31;12.40;99.90
49224;DHT22;35050;51.316;5.994;2023-02-15T17:21:01;12.30;99.90
49224;DHT22;35050;51.316;5.994;2023-02-15T17:26:22;12.20;99.90
49224;DHT22;35050;51.316;5.994;2023-02-15T17:28:54;12.20;99.90
49224;DHT22;35050;51.316;5.994;2023-02-15T17:31:21;12.20;99.90
49224;DHT22;35050;51.316;5.994;2023-02-15T17:33:49;12.00;99.90
49224;DHT22;35050;51.316;5.994;2023-02-15T17:36:20;12.00;99.90
49224;DHT22;35050;51.316;5.994;2023-02-15T17:41:26;11.90;99.90
49224;DHT22;35050;51.316;5.994;2023-02-15T17:43:52;11.80;99.90
49224;DHT22;35050;51.316;5.994;2023-02-15T17:46:18;11.70;99.90
49224;DHT22;35050;51.316;5.994;2023-02-15T17:48:48;11.60;99.90
49224;DHT22;35050;51.316;5.994;2023-02-15T17:51:15;11.60;99.90
49224;DHT22;35050;51.316;5.994;2023-02-15T17:53:42;11.60;99.90
49224;DHT22;35050;51.316;5.994;2023-02-15T17:56:31;11.40;99.90
49224;DHT22;35050;51.316;5.994;2023-02-15T17:58:57;11.40;99.90
49224;DHT22;35050;51.316;5.994;2023-02-15T18:01:23;11.50;99.90
49224;DHT22;35050;51.316;5.994;2023-02-15T18:04:12;11.40;99.90
49224;DHT22;35050;51.316;5.994;2023-02-15T18:06:57;11.30;99.90
49224;DHT22;35050;51.316;5.994;2023-02-15T18:09:41;11.30;99.90
49224;DHT22;35050;51.316;5.994;2023-02-15T18:12:31;11.30;99.90
49224;DHT22;35050;51.316;5.994;2023-02-15T18:14:57;11.20;99.90
49224;DHT22;35050;51.316;5.994;2023-02-15T18:17:36;11.20;99.90
49224;DHT22;35050;51.316;5.994;2023-02-15T18:20:37;11.20;99.90
49224;DHT22;35050;51.316;5.994;2023-02-15T18:22:56;11.10;99.90
49224;DHT22;35050;51.316;5.994;2023-02-15T18:25:22;11.00;99.90
49224;DHT22;35050;51.316;5.994;2023-02-15T18:27:50;10.80;99.90
49224;DHT22;35050;51.316;5.994;2023-02-15T18:30:21;10.80;99.90
49224;DHT22;35050;51.316;5.994;2023-02-15T18:32:49;10.70;99.90
49224;DHT22;35050;51.316;5.994;2023-02-15T18:35:21;10.70;99.90
49224;DHT22;35050;51.316;5.994;2023-02-15T18:37:47;10.60;99.90
49224;DHT22;35050;51.316;5.994;2023-02-15T18:40:15;10.60;99.90
49224;DHT22;35050;51.316;5.994;2023-02-15T18:42:42;10.60;99.90
49224;DHT22;35050;51.316;5.994;2023-02-15T18:47:43;10.50;99.90
49224;DHT22;35050;51.316;5.994;2023-02-15T18:50:14;10.40;99.90
49224;DHT22;35050;51.316;5.994;2023-02-15T18:52:42;10.40;99.90
49224;DHT22;35050;51.316;5.994;2023-02-15T18:57:45;10.40;99.90
49224;DHT22;35050;51.316;5.994;2023-02-15T19:00:20;10.30;99.90
49224;DHT22;35050;51.316;5.994;2023-02-15T19:02:46;10.30;99.90
49224;DHT22;35050;51.316;5.994;2023-02-15T19:05:12;10.20;99.90
49224;DHT22;35050;51.316;5.994;2023-02-15T19:07:38;10.20;99.90
49224;DHT22;35050;51.316;5.994;2023-02-15T19:10:05;10.30;99.90
49224;DHT22;35050;51.316;5.994;2023-02-15T19:12:33;10.10;99.90
49224;DHT22;35050;51.316;5.994;2023-02-15T19:14:58;10.10;99.90